Time;durP1;ratioP1;P1;durP2;ratioP2;P2;SDS_P1;SDS_P2;PMS_P1;PMS_P2;Temp;Humidity;BMP_temperature;BMP_pressure;BME280_temperature;BME280_humidity;BME280_pressure;Samples;Min_cycle;Max_cycle;Signal;HPM_P1;HPM_P2
2022/12/19 00:01:17;;;;;;;17.58;16.48;;;9.90;99.90;;;;;;4992381;28;20046;-90
2022/12/19 00:03:48;;;;;;;16.88;15.70;;;9.90;99.90;;;;;;5004487;28;20533;-89
2022/12/19 00:06:14;;;;;;;16.45;15.27;;;9.90;99.90;;;;;;5009946;28;20050;-90
2022/12/19 00:08:41;;;;;;;17.65;16.52;;;9.90;99.90;;;;;;4987389;28;20038;-90
2022/12/19 00:11:08;;;;;;;17.98;16.60;;;9.90;99.90;;;;;;4992342;28;20041;-90
2022/12/19 00:13:34;;;;;;;17.63;16.48;;;9.90;99.90;;;;;;5000422;28;20030;-90
2022/12/19 00:16:12;;;;;;;18.38;16.95;;;9.90;99.90;;;;;;5008103;28;20042;-90
2022/12/19 00:18:39;;;;;;;18.38;17.10;;;10.00;99.90;;;;;;4991744;28;20018;-89
2022/12/19 00:21:05;;;;;;;18.52;17.33;;;9.90;99.90;;;;;;5011901;28;20038;-89
2022/12/19 00:23:32;;;;;;;17.13;16.13;;;10.00;99.90;;;;;;5007466;28;20046;-89
2022/12/19 00:26:15;;;;;;;16.83;15.73;;;10.00;99.90;;;;;;4974259;28;20065;-89
2022/12/19 00:28:41;;;;;;;17.17;16.08;;;10.00;99.90;;;;;;5001232;28;20065;-89
2022/12/19 00:31:08;;;;;;;18.13;16.73;;;10.00;99.90;;;;;;4991850;28;20034;-89
2022/12/19 00:33:34;;;;;;;16.73;15.63;;;10.00;99.90;;;;;;4992189;28;20064;-90
2022/12/19 00:36:01;;;;;;;17.50;16.40;;;10.00;99.90;;;;;;5005772;28;20045;-91
2022/12/19 00:38:27;;;;;;;16.70;15.60;;;10.00;99.90;;;;;;4991103;28;20047;-91
2022/12/19 00:40:53;;;;;;;18.58;17.38;;;10.00;99.90;;;;;;5003364;28;20391;-90
2022/12/19 00:43:19;;;;;;;18.17;16.77;;;10.00;99.90;;;;;;4977013;28;20042;-89
2022/12/19 00:45:45;;;;;;;18.00;16.77;;;10.00;99.90;;;;;;4977057;28;20049;-89
2022/12/19 00:48:11;;;;;;;16.83;15.73;;;10.00;99.90;;;;;;4993795;28;20045;-89
2022/12/19 00:50:37;;;;;;;16.65;15.52;;;10.00;99.90;;;;;;4972374;28;20388;-90
2022/12/19 00:53:03;;;;;;;17.55;16.35;;;10.00;99.90;;;;;;4983379;28;20033;-90
2022/12/19 00:55:29;;;;;;;17.48;16.27;;;10.00;99.90;;;;;;4990111;28;20361;-89
2022/12/19 00:57:56;;;;;;;17.42;16.33;;;10.00;99.90;;;;;;4992703;28;20035;-91
2022/12/19 01:00:22;;;;;;;18.08;16.67;;;10.00;99.90;;;;;;4994612;28;20030;-89
2022/12/19 01:02:48;;;;;;;17.15;16.10;;;10.10;99.90;;;;;;4976240;28;20035;-89
2022/12/19 01:05:14;;;;;;;16.70;15.60;;;10.10;99.90;;;;;;4989888;28;20038;-89
2022/12/19 01:07:40;;;;;;;16.65;15.45;;;10.10;99.90;;;;;;4989413;28;20038;-88
2022/12/19 01:10:07;;;;;;;16.20;15.20;;;10.10;99.90;;;;;;4991454;28;20030;-90
2022/12/19 01:12:45;;;;;;;16.30;15.07;;;10.10;99.90;;;;;;4994474;28;20030;-90
2022/12/19 01:15:19;;;;;;;17.40;16.20;;;10.10;99.90;;;;;;4999364;28;20488;-90
2022/12/19 01:17:46;;;;;;;15.70;14.70;;;10.10;99.90;;;;;;4977778;28;20527;-90
2022/12/19 01:20:14;;;;;;;17.45;16.08;;;10.10;99.90;;;;;;4975988;28;20041;-90
2022/12/19 01:22:40;;;;;;;17.55;16.48;;;10.10;99.90;;;;;;4974459;28;20034;-90
2022/12/19 01:25:06;;;;;;;17.80;16.60;;;10.10;99.90;;;;;;4974533;28;20039;-89
2022/12/19 01:27:32;;;;;;;16.55;15.25;;;10.10;99.90;;;;;;5006349;28;20046;-90
2022/12/19 01:29:58;;;;;;;17.15;15.85;;;10.10;99.90;;;;;;4977852;28;20042;-90
2022/12/19 01:32:24;;;;;;;17.42;16.23;;;10.10;99.90;;;;;;4992929;28;20049;-89
2022/12/19 01:34:51;;;;;;;17.02;15.93;;;10.10;99.90;;;;;;4994759;28;20027;-91
2022/12/19 01:37:17;;;;;;;18.92;17.33;;;10.10;99.90;;;;;;4990641;28;20492;-90
2022/12/19 01:39:43;;;;;;;17.15;15.95;;;10.10;99.90;;;;;;4977145;28;20368;-89
2022/12/19 01:42:17;;;;;;;16.98;15.77;;;10.10;99.90;;;;;;4991918;28;20038;-90
2022/12/19 01:45:15;;;;;;;18.60;17.40;;;10.10;99.90;;;;;;4973811;28;20045;-90
2022/12/19 01:47:41;;;;;;;18.95;17.63;;;10.10;99.90;;;;;;4989516;28;20501;-89
2022/12/19 01:50:10;;;;;;;18.73;17.30;;;10.10;99.90;;;;;;4986725;28;20492;-90
2022/12/19 01:52:37;;;;;;;18.27;17.10;;;10.10;99.90;;;;;;4970666;28;20561;-89
2022/12/19 01:55:03;;;;;;;20.83;19.30;;;10.00;99.90;;;;;;4975943;28;20053;-89
2022/12/19 01:57:29;;;;;;;19.20;17.90;;;10.00;99.90;;;;;;4992384;28;20046;-88
2022/12/19 01:59:56;;;;;;;18.67;17.58;;;10.00;99.90;;;;;;4974860;28;20138;-89
2022/12/19 02:02:36;;;;;;;19.92;18.65;;;10.00;99.90;;;;;;4971586;28;20356;-90
2022/12/19 02:05:03;;;;;;;19.42;17.88;;;10.00;99.90;;;;;;4975112;28;20045;-89
2022/12/19 02:07:30;;;;;;;19.25;18.05;;;10.10;99.90;;;;;;4972944;28;20380;-89
2022/12/19 02:09:56;;;;;;;19.98;18.63;;;10.10;99.90;;;;;;4973262;28;20042;-89
2022/12/19 02:12:23;;;;;;;20.75;19.40;;;10.10;99.90;;;;;;4989073;28;20069;-90
2022/12/19 02:14:49;;;;;;;19.98;18.30;;;10.10;99.90;;;;;;4974406;28;20038;-89
2022/12/19 02:17:27;;;;;;;20.30;18.88;;;10.10;99.90;;;;;;4975188;28;20038;-89
2022/12/19 02:20:11;;;;;;;19.48;18.27;;;10.10;99.90;;;;;;4992090;28;20134;-89
2022/12/19 02:23:04;;;;;;;20.42;18.88;;;10.10;99.90;;;;;;4974301;28;20050;-89
2022/12/19 02:25:52;;;;;;;19.90;18.50;;;10.10;99.90;;;;;;4985961;28;20392;-92
2022/12/19 02:28:18;;;;;;;21.08;19.77;;;10.10;99.90;;;;;;4997444;28;20022;-89
2022/12/19 02:30:47;;;;;;;19.73;18.48;;;10.10;99.90;;;;;;5000415;28;20034;-89
2022/12/19 02:33:22;;;;;;;20.42;19.02;;;10.10;99.90;;;;;;5002373;28;20025;-89
2022/12/19 02:35:53;;;;;;;20.90;19.27;;;10.10;99.90;;;;;;5000539;28;20042;-88
2022/12/19 02:38:35;;;;;;;21.17;19.63;;;10.10;99.90;;;;;;4984797;28;20046;-88
2022/12/19 02:41:12;;;;;;;20.63;19.17;;;10.10;99.90;;;;;;4979612;28;20416;-88
2022/12/19 02:43:39;;;;;;;21.75;20.23;;;10.10;99.90;;;;;;4984340;28;20538;-89
2022/12/19 02:46:05;;;;;;;21.13;19.83;;;10.10;99.90;;;;;;4979641;28;20062;-90
2022/12/19 02:48:31;;;;;;;21.08;19.58;;;10.20;99.90;;;;;;5005587;28;20491;-88
2022/12/19 02:50:57;;;;;;;21.70;20.25;;;10.20;99.90;;;;;;5009461;28;20472;-88
2022/12/19 02:53:24;;;;;;;21.38;20.02;;;10.20;99.90;;;;;;4980736;28;20041;-88
2022/12/19 02:56:10;;;;;;;21.02;19.65;;;10.20;99.90;;;;;;4995845;28;20154;-89
2022/12/19 02:58:57;;;;;;;20.48;18.98;;;10.20;99.90;;;;;;4993555;28;20038;-89
2022/12/19 03:01:45;;;;;;;18.92;17.52;;;10.20;99.90;;;;;;4991135;28;20035;-90
2022/12/19 03:04:16;;;;;;;19.48;18.10;;;10.20;99.90;;;;;;4986684;28;20031;-89
2022/12/19 03:07:29;;;;;;;20.15;18.75;;;10.20;99.90;;;;;;4986933;28;20038;-90
2022/12/19 03:10:02;;;;;;;19.48;17.95;;;10.20;99.90;;;;;;4948218;28;20043;-88
2022/12/19 03:12:37;;;;;;;18.17;16.92;;;10.20;99.90;;;;;;4966637;28;20082;-88
2022/12/19 03:15:03;;;;;;;19.27;17.75;;;10.20;99.90;;;;;;4974021;28;20034;-88
2022/12/19 03:17:34;;;;;;;18.02;16.83;;;10.20;99.90;;;;;;4966012;28;20075;-89
2022/12/19 03:20:01;;;;;;;19.92;18.40;;;10.20;99.90;;;;;;4954369;28;20547;-88
2022/12/19 03:22:27;;;;;;;20.23;18.75;;;10.20;99.90;;;;;;4950285;28;20062;-88
2022/12/19 03:24:53;;;;;;;18.73;17.52;;;10.20;99.90;;;;;;4966937;28;20039;-90
2022/12/19 03:27:27;;;;;;;21.25;19.92;;;10.20;99.90;;;;;;4957415;28;20058;-90
2022/12/19 03:30:01;;;;;;;20.40;19.00;;;10.30;99.90;;;;;;4955345;28;20053;-88
2022/12/19 03:32:28;;;;;;;21.00;19.63;;;10.30;99.90;;;;;;4954124;28;20046;-89
2022/12/19 03:35:04;;;;;;;20.13;18.90;;;10.30;99.90;;;;;;4966417;28;20046;-89
2022/12/19 03:37:32;;;;;;;20.45;19.08;;;10.30;99.90;;;;;;4958115;28;20035;-88
2022/12/19 03:40:00;;;;;;;20.05;18.83;;;10.40;99.90;;;;;;4936140;28;20049;-89
2022/12/19 03:45:10;;;;;;;21.10;19.77;;;10.40;99.90;;;;;;4973794;28;20042;-89
2022/12/19 03:47:43;;;;;;;19.65;18.33;;;10.40;99.90;;;;;;4955838;28;20130;-91
2022/12/19 03:50:09;;;;;;;19.25;18.15;;;10.40;99.90;;;;;;4983900;28;20038;-90
2022/12/19 03:52:54;;;;;;;20.42;18.88;;;10.40;99.90;;;;;;4954133;28;20034;-88
2022/12/19 03:55:23;;;;;;;19.45;18.10;;;10.40;99.90;;;;;;4973093;28;20039;-89
2022/12/19 03:58:11;;;;;;;19.80;18.55;;;10.40;99.90;;;;;;4973591;28;20026;-88
2022/12/19 04:00:37;;;;;;;19.65;18.35;;;10.40;99.90;;;;;;4970649;28;20031;-88
2022/12/19 04:03:03;;;;;;;20.23;18.73;;;10.40;99.90;;;;;;4954430;28;20035;-88
2022/12/19 04:05:29;;;;;;;20.30;18.77;;;10.40;99.90;;;;;;4937338;28;20400;-89
2022/12/19 04:07:58;;;;;;;18.85;17.63;;;10.40;99.90;;;;;;4950264;28;20051;-89
2022/12/19 04:10:25;;;;;;;18.15;16.83;;;10.40;99.90;;;;;;4956600;28;20027;-91
2022/12/19 04:13:05;;;;;;;16.77;15.68;;;10.30;99.90;;;;;;4945010;28;20042;-92
2022/12/19 04:15:40;;;;;;;18.02;16.48;;;10.40;99.90;;;;;;4973664;28;20039;-90
2022/12/19 04:18:06;;;;;;;18.13;16.92;;;10.40;99.90;;;;;;4963112;28;20515;-90
2022/12/19 04:20:32;;;;;;;18.40;17.20;;;10.40;99.90;;;;;;4956145;28;20030;-90
2022/12/19 04:23:21;;;;;;;18.98;17.77;;;10.40;99.90;;;;;;4982883;28;20033;-91
2022/12/19 04:25:51;;;;;;;16.73;15.38;;;10.40;99.90;;;;;;4986045;28;20042;-90
2022/12/19 04:28:34;;;;;;;17.02;15.90;;;10.40;99.90;;;;;;4985178;28;20031;-90
2022/12/19 04:31:00;;;;;;;16.10;15.20;;;10.40;99.90;;;;;;4993833;28;20030;-90
2022/12/19 04:33:26;;;;;;;17.83;16.63;;;10.40;99.90;;;;;;4978330;28;20038;-90
2022/12/19 04:35:52;;;;;;;17.75;16.45;;;10.40;99.90;;;;;;4995671;28;20027;-93
2022/12/19 04:38:19;;;;;;;17.55;16.23;;;10.40;99.90;;;;;;4979842;28;20076;-92
2022/12/19 04:40:45;;;;;;;16.88;15.80;;;10.40;99.90;;;;;;4988764;28;20035;-90
2022/12/19 04:43:11;;;;;;;16.58;15.35;;;10.40;99.90;;;;;;4976303;28;20043;-92
2022/12/19 04:45:39;;;;;;;17.77;16.33;;;10.40;99.90;;;;;;4993039;28;20423;-91
2022/12/19 04:48:05;;;;;;;17.95;16.73;;;10.40;99.90;;;;;;4994359;28;20050;-92
2022/12/19 04:50:32;;;;;;;17.38;15.95;;;10.40;99.90;;;;;;4995924;28;20050;-93
2022/12/19 04:52:58;;;;;;;19.83;18.02;;;10.40;99.90;;;;;;5010239;28;20039;-92
2022/12/19 04:55:25;;;;;;;16.35;15.25;;;10.40;99.90;;;;;;4995353;28;20042;-91
2022/12/19 04:57:51;;;;;;;18.67;17.52;;;10.30;99.90;;;;;;4975911;28;20027;-92
2022/12/19 05:00:17;;;;;;;17.15;16.00;;;10.40;99.90;;;;;;4976645;28;20062;-90
2022/12/19 05:02:44;;;;;;;17.20;16.13;;;10.40;99.90;;;;;;4977277;28;20467;-91
2022/12/19 05:05:10;;;;;;;15.02;14.02;;;10.40;99.90;;;;;;4990467;28;20037;-91
2022/12/19 05:07:36;;;;;;;17.02;15.80;;;10.40;99.90;;;;;;4981450;28;20483;-92
2022/12/19 05:10:03;;;;;;;18.20;17.05;;;10.40;99.90;;;;;;4990895;28;20035;-91
2022/12/19 05:12:29;;;;;;;16.60;15.45;;;10.40;99.90;;;;;;4995207;28;20057;-92
2022/12/19 05:14:55;;;;;;;17.10;16.00;;;10.40;99.90;;;;;;4994869;28;20039;-92
2022/12/19 05:17:21;;;;;;;16.48;15.45;;;10.30;99.90;;;;;;4993997;28;20049;-93
2022/12/19 05:19:47;;;;;;;19.10;17.80;;;10.30;99.90;;;;;;4988379;28;20042;-90
2022/12/19 05:22:14;;;;;;;17.20;15.93;;;10.30;99.90;;;;;;4986103;28;20043;-92
2022/12/19 05:24:40;;;;;;;17.08;15.98;;;10.30;99.90;;;;;;4980538;28;20078;-91
2022/12/19 05:27:06;;;;;;;17.27;16.10;;;10.30;99.90;;;;;;4965702;28;20038;-94
2022/12/19 05:29:33;;;;;;;18.65;17.10;;;10.30;99.90;;;;;;4990325;28;20049;-93
2022/12/19 05:31:59;;;;;;;16.92;15.85;;;10.30;99.90;;;;;;4993092;28;20045;-93
2022/12/19 05:34:25;;;;;;;17.30;16.10;;;10.20;99.90;;;;;;4994231;28;20459;-88
2022/12/19 05:36:51;;;;;;;18.60;17.20;;;10.20;99.90;;;;;;4994853;28;20034;-91
2022/12/19 05:39:17;;;;;;;17.50;16.20;;;10.20;99.90;;;;;;4990618;28;20035;-92
2022/12/19 05:41:43;;;;;;;16.95;15.75;;;10.20;99.90;;;;;;4976165;28;20034;-91
2022/12/19 05:44:10;;;;;;;17.98;16.65;;;10.20;99.90;;;;;;4992788;28;20030;-92
2022/12/19 05:46:36;;;;;;;17.33;16.10;;;10.10;99.90;;;;;;4994222;28;20049;-92
2022/12/19 05:49:02;;;;;;;17.95;16.70;;;10.10;99.90;;;;;;4994783;28;20022;-91
2022/12/19 05:51:28;;;;;;;18.05;16.83;;;10.10;99.90;;;;;;5010453;28;20050;-92
2022/12/19 05:53:54;;;;;;;16.80;15.48;;;10.10;99.90;;;;;;4986854;28;20050;-92
2022/12/19 05:56:21;;;;;;;16.00;15.05;;;10.10;99.90;;;;;;4984885;28;20038;-91
2022/12/19 05:58:47;;;;;;;17.58;16.45;;;10.10;99.90;;;;;;4975061;28;20054;-92
2022/12/19 06:01:15;;;;;;;17.33;16.30;;;10.10;99.90;;;;;;4991664;28;20058;-90
2022/12/19 06:03:42;;;;;;;19.02;17.65;;;10.10;99.90;;;;;;4977078;28;20048;-92
2022/12/19 06:06:09;;;;;;;18.42;17.27;;;10.10;99.90;;;;;;4993798;28;20038;-91
2022/12/19 06:08:36;;;;;;;18.65;17.35;;;10.10;99.90;;;;;;4987272;28;20042;-88
2022/12/19 06:11:03;;;;;;;18.55;17.35;;;10.10;99.90;;;;;;4961488;28;20034;-91
2022/12/19 06:13:29;;;;;;;18.15;16.92;;;10.10;99.90;;;;;;4990597;28;20039;-90
2022/12/19 06:16:02;;;;;;;17.60;16.15;;;10.10;99.90;;;;;;4986178;28;20096;-92
2022/12/19 06:18:29;;;;;;;19.02;17.77;;;10.10;99.90;;;;;;4992284;28;20022;-91
2022/12/19 06:20:58;;;;;;;17.58;16.23;;;10.10;99.90;;;;;;4989679;28;20039;-91
2022/12/19 06:23:24;;;;;;;18.40;17.15;;;10.10;99.90;;;;;;4989248;28;20038;-92
2022/12/19 06:25:51;;;;;;;18.73;17.38;;;10.10;99.90;;;;;;4975203;28;20034;-91
2022/12/19 06:28:17;;;;;;;17.50;16.45;;;10.10;99.90;;;;;;4991462;28;20046;-89
2022/12/19 06:30:43;;;;;;;18.95;17.75;;;10.10;99.90;;;;;;4993082;28;20041;-90
2022/12/19 06:33:09;;;;;;;18.15;17.08;;;10.10;99.90;;;;;;4986186;28;20030;-90
2022/12/19 06:35:36;;;;;;;17.08;15.90;;;10.10;99.90;;;;;;4992855;28;20030;-91
2022/12/19 06:38:02;;;;;;;18.85;17.65;;;10.10;99.90;;;;;;4976857;28;20030;-90
2022/12/19 06:43:12;;;;;;;18.42;17.25;;;10.10;99.90;;;;;;4996339;28;20042;-90
2022/12/19 06:45:38;;;;;;;17.38;16.27;;;10.10;99.90;;;;;;4992586;28;20042;-90
2022/12/19 06:48:05;;;;;;;18.05;16.90;;;10.00;99.90;;;;;;4991751;28;20042;-90
2022/12/19 06:50:31;;;;;;;17.90;16.52;;;10.00;99.90;;;;;;4985566;28;20030;-90
2022/12/19 06:52:57;;;;;;;17.92;16.85;;;10.00;99.90;;;;;;4993453;28;20045;-90
2022/12/19 06:55:23;;;;;;;19.08;17.95;;;10.10;99.90;;;;;;4994593;28;20026;-91
2022/12/19 06:57:49;;;;;;;19.25;17.85;;;10.10;99.90;;;;;;4993583;28;20034;-91
2022/12/19 07:00:16;;;;;;;18.70;17.42;;;10.10;99.90;;;;;;4974633;28;20038;-91
2022/12/19 07:02:43;;;;;;;18.52;17.23;;;10.10;99.90;;;;;;4994531;28;20038;-91
2022/12/19 07:05:09;;;;;;;17.13;16.02;;;10.10;99.90;;;;;;4994080;28;20030;-91
2022/12/19 07:07:35;;;;;;;18.95;17.65;;;10.10;99.90;;;;;;4977596;28;20506;-89
2022/12/19 07:10:03;;;;;;;19.88;18.45;;;10.10;99.90;;;;;;4989357;28;20039;-89
2022/12/19 07:12:29;;;;;;;18.50;16.88;;;10.10;99.90;;;;;;4989717;28;20066;-90
2022/12/19 07:14:55;;;;;;;18.27;16.83;;;10.10;99.90;;;;;;4975809;28;20034;-90
2022/12/19 07:17:22;;;;;;;18.92;17.33;;;10.10;99.90;;;;;;4960955;28;20038;-91
2022/12/19 07:19:49;;;;;;;18.27;17.05;;;10.10;99.90;;;;;;4969867;28;20046;-90
2022/12/19 07:22:15;;;;;;;18.45;17.13;;;10.10;99.90;;;;;;4980741;28;20398;-91
2022/12/19 07:24:41;;;;;;;21.20;18.98;;;10.10;99.90;;;;;;4995306;28;20043;-89
2022/12/19 07:27:07;;;;;;;21.35;19.52;;;10.20;99.90;;;;;;4999544;28;20073;-90
2022/12/19 07:29:33;;;;;;;20.58;19.08;;;10.20;99.90;;;;;;4999559;28;20042;-89
2022/12/19 07:31:59;;;;;;;19.23;17.95;;;10.20;99.90;;;;;;5015991;28;20041;-87
2022/12/19 07:34:25;;;;;;;19.13;17.88;;;10.10;99.90;;;;;;4982703;28;20464;-85
2022/12/19 07:36:51;;;;;;;18.98;17.67;;;10.20;99.90;;;;;;4999349;28;20030;-90
2022/12/19 07:39:17;;;;;;;19.25;17.92;;;10.20;99.90;;;;;;5008963;28;20062;-91
2022/12/19 07:41:44;;;;;;;18.30;17.00;;;10.30;99.90;;;;;;5013499;28;20027;-90
2022/12/19 07:44:12;;;;;;;19.42;18.15;;;10.30;99.90;;;;;;4981973;28;20050;-91
2022/12/19 07:46:38;;;;;;;17.48;16.35;;;10.30;99.90;;;;;;4985629;28;20475;-90
2022/12/19 07:49:04;;;;;;;17.77;16.52;;;10.30;99.90;;;;;;5003320;28;20037;-90
2022/12/19 07:51:30;;;;;;;19.15;17.85;;;10.30;99.90;;;;;;4988932;28;20039;-91
2022/12/19 07:53:56;;;;;;;20.13;18.83;;;10.30;99.90;;;;;;4979937;28;20023;-91
2022/12/19 07:56:22;;;;;;;19.00;17.75;;;10.30;99.90;;;;;;4989836;28;20495;-90
2022/12/19 07:58:49;;;;;;;18.75;17.55;;;10.30;99.90;;;;;;4997366;28;20045;-91
2022/12/19 08:01:15;;;;;;;17.90;16.80;;;10.30;99.90;;;;;;4996800;28;20057;-90
2022/12/19 08:03:41;;;;;;;18.20;16.73;;;10.30;99.90;;;;;;5012590;28;20043;-90
2022/12/19 08:06:07;;;;;;;19.60;18.17;;;10.30;99.90;;;;;;4997996;28;20057;-90
2022/12/19 08:08:34;;;;;;;19.05;17.65;;;10.30;99.90;;;;;;4998099;28;20483;-90
2022/12/19 08:11:15;;;;;;;19.88;18.25;;;10.30;99.90;;;;;;4980444;28;20034;-91
2022/12/19 08:13:41;;;;;;;17.50;16.33;;;10.40;99.90;;;;;;4978437;28;20042;-92
2022/12/19 08:16:08;;;;;;;19.63;18.08;;;10.40;99.90;;;;;;5005333;28;20041;-92
2022/12/19 08:18:34;;;;;;;18.75;17.40;;;10.40;99.90;;;;;;4993500;28;20047;-89
2022/12/19 08:21:00;;;;;;;19.58;18.15;;;10.40;99.90;;;;;;4995259;28;20030;-92
2022/12/19 08:23:26;;;;;;;21.20;19.38;;;10.40;99.90;;;;;;4982428;28;20039;-91
2022/12/19 08:26:00;;;;;;;18.65;17.55;;;10.50;99.90;;;;;;4994037;28;20058;-92
2022/12/19 08:28:26;;;;;;;20.77;19.40;;;10.60;99.90;;;;;;4982193;28;20046;-90
2022/12/19 08:30:52;;;;;;;20.42;18.73;;;10.60;99.90;;;;;;4995209;28;20042;-92
2022/12/19 08:33:18;;;;;;;18.75;17.63;;;10.60;99.90;;;;;;4997318;28;20042;-91
2022/12/19 08:35:44;;;;;;;20.98;19.58;;;10.70;99.90;;;;;;4997932;28;20027;-91
2022/12/19 08:38:11;;;;;;;20.50;19.15;;;10.70;99.90;;;;;;4999959;28;20053;-92
2022/12/19 08:40:37;;;;;;;20.27;19.00;;;10.70;99.90;;;;;;4997176;28;20042;-91
2022/12/19 08:43:03;;;;;;;19.33;17.98;;;10.80;99.90;;;;;;4992544;28;20404;-92
2022/12/19 08:45:29;;;;;;;20.25;18.75;;;10.80;99.90;;;;;;4982596;28;20034;-89
2022/12/19 08:47:55;;;;;;;21.58;20.08;;;10.80;99.90;;;;;;4991793;28;20395;-91
2022/12/19 08:50:21;;;;;;;19.92;18.40;;;10.80;99.90;;;;;;4986864;28;20026;-92
2022/12/19 08:52:47;;;;;;;20.08;18.88;;;10.80;99.90;;;;;;4981137;28;20045;-94
2022/12/19 08:55:14;;;;;;;19.40;18.00;;;10.80;99.90;;;;;;4975996;28;20034;-92
2022/12/19 08:57:40;;;;;;;20.42;18.95;;;10.90;99.90;;;;;;4984213;28;20034;-88
2022/12/19 09:00:07;;;;;;;19.20;17.70;;;10.90;99.90;;;;;;4991986;28;20053;-89
2022/12/19 09:02:33;;;;;;;19.30;17.85;;;11.00;99.90;;;;;;4995005;28;20045;-90
2022/12/19 09:04:59;;;;;;;17.00;15.77;;;10.90;99.90;;;;;;4996022;28;20216;-92
2022/12/19 09:07:25;;;;;;;19.38;17.67;;;11.00;99.90;;;;;;4996666;28;20041;-93
2022/12/19 09:09:51;;;;;;;19.17;17.75;;;11.00;99.90;;;;;;5001279;28;20050;-95
2022/12/19 09:12:18;;;;;;;19.88;18.45;;;11.00;99.90;;;;;;4996457;28;20356;-91
2022/12/19 09:14:44;;;;;;;18.65;17.55;;;11.00;99.90;;;;;;4988864;28;20038;-92
2022/12/19 09:17:10;;;;;;;18.60;17.35;;;11.00;99.90;;;;;;4994081;28;20038;-92
2022/12/19 09:19:36;;;;;;;18.98;17.58;;;11.00;99.90;;;;;;4978150;28;20057;-92
2022/12/19 09:22:02;;;;;;;17.92;16.73;;;11.00;99.90;;;;;;4995129;28;20035;-93
2022/12/19 09:24:28;;;;;;;20.17;18.48;;;11.00;99.90;;;;;;4978502;28;20065;-94
2022/12/19 09:26:54;;;;;;;19.75;18.35;;;11.00;99.90;;;;;;4991421;28;20038;-92
2022/12/19 09:29:20;;;;;;;19.15;17.88;;;11.00;99.90;;;;;;4980572;28;20046;-93
2022/12/19 09:31:47;;;;;;;17.63;16.55;;;11.10;99.90;;;;;;4993297;28;20523;-89
2022/12/19 09:34:13;;;;;;;19.10;17.73;;;11.00;99.90;;;;;;4988312;28;20026;-93
2022/12/19 09:36:39;;;;;;;19.50;17.95;;;11.10;99.90;;;;;;4972663;28;20035;-91
2022/12/19 09:39:05;;;;;;;17.95;16.65;;;11.10;99.90;;;;;;4979031;28;20039;-88
2022/12/19 09:41:50;;;;;;;17.98;16.67;;;11.10;99.90;;;;;;4984629;28;20030;-91
2022/12/19 09:44:32;;;;;;;17.58;16.40;;;11.10;99.90;;;;;;4994962;28;20030;-92
2022/12/19 09:47:12;;;;;;;18.58;17.25;;;11.20;99.90;;;;;;4977331;28;20491;-91
2022/12/19 09:49:41;;;;;;;17.52;16.35;;;11.20;99.90;;;;;;4976019;28;20038;-92
2022/12/19 09:52:34;;;;;;;18.33;16.98;;;11.20;99.90;;;;;;4987603;28;20045;-92
2022/12/19 09:55:23;;;;;;;19.50;18.17;;;11.30;99.90;;;;;;4994006;28;20041;-92
2022/12/19 09:58:00;;;;;;;19.20;17.50;;;11.30;99.90;;;;;;4982643;28;20038;-94
2022/12/19 10:00:31;;;;;;;18.05;16.58;;;11.30;99.90;;;;;;4994156;28;20046;-90
2022/12/19 10:03:11;;;;;;;19.27;17.95;;;11.40;99.90;;;;;;4990385;28;20034;-93
2022/12/19 10:05:48;;;;;;;18.33;17.15;;;11.40;99.90;;;;;;5008414;28;20484;-92
2022/12/19 10:08:20;;;;;;;18.92;17.15;;;11.40;99.90;;;;;;4987637;28;20399;-92
2022/12/19 10:10:59;;;;;;;17.38;16.13;;;11.40;99.90;;;;;;4989191;28;20026;-92
2022/12/19 10:14:01;;;;;;;18.40;17.08;;;11.50;99.90;;;;;;4978116;28;20530;-93
2022/12/19 10:16:35;;;;;;;17.23;15.68;;;11.50;99.90;;;;;;4984035;28;20038;-91
2022/12/19 10:19:05;;;;;;;21.17;19.05;;;11.50;99.90;;;;;;4963367;28;20424;-88
2022/12/19 10:21:49;;;;;;;20.10;18.70;;;11.60;99.90;;;;;;4982039;28;20403;-88
2022/12/19 10:24:46;;;;;;;21.48;19.67;;;11.60;99.90;;;;;;4984922;28;20026;-87
2022/12/19 10:27:28;;;;;;;21.55;19.73;;;11.60;99.90;;;;;;4982368;28;20042;-89
2022/12/19 10:30:01;;;;;;;19.10;17.90;;;11.70;99.90;;;;;;4995227;28;20041;-89
2022/12/19 10:32:48;;;;;;;18.25;16.65;;;11.70;99.90;;;;;;4977252;28;20057;-91
2022/12/19 10:35:16;;;;;;;18.27;16.98;;;11.70;99.90;;;;;;4977092;28;20041;-89
2022/12/19 10:37:49;;;;;;;19.02;17.40;;;11.80;99.90;;;;;;4990347;28;20049;-89
2022/12/19 10:40:45;;;;;;;19.83;17.80;;;11.80;99.90;;;;;;4971885;28;20053;-93
2022/12/19 10:43:42;;;;;;;19.10;17.42;;;11.70;99.90;;;;;;4988461;28;20069;-92
2022/12/19 10:46:38;;;;;;;21.08;19.17;;;11.70;99.90;;;;;;4972971;28;20039;-92
2022/12/19 10:49:40;;;;;;;22.98;21.17;;;11.70;99.90;;;;;;4987246;28;20038;-93
2022/12/19 10:52:08;;;;;;;26.45;24.42;;;11.70;99.90;;;;;;4981114;28;20038;-92
2022/12/19 10:54:37;;;;;;;28.20;26.20;;;11.70;99.90;;;;;;4971163;28;20043;-91
2022/12/19 10:57:21;;;;;;;26.27;24.17;;;11.60;99.90;;;;;;4992533;28;20026;-91
2022/12/19 11:00:02;;;;;;;26.33;24.35;;;11.60;99.90;;;;;;4985091;28;20058;-91
2022/12/19 11:02:37;;;;;;;;;;;11.60;99.90;;;;;;4985414;28;20376;-93
2022/12/19 11:05:26;;;;;;;26.23;24.50;;;11.60;99.90;;;;;;5006170;28;19909;-94
2022/12/19 11:07:59;;;;;;;26.48;24.60;;;11.60;99.90;;;;;;5015720;28;20030;-95
2022/12/19 11:10:41;;;;;;;26.67;24.55;;;11.60;99.90;;;;;;4990587;28;20075;-95
2022/12/19 11:13:27;;;;;;;26.10;24.30;;;11.60;99.90;;;;;;5006547;28;20041;-94
2022/12/19 11:15:57;;;;;;;26.98;25.05;;;11.60;99.90;;;;;;4980752;28;20046;-92
2022/12/19 11:18:24;;;;;;;28.47;26.10;;;11.60;99.90;;;;;;4981150;28;20029;-95
2022/12/19 11:21:25;;;;;;;28.77;26.60;;;11.60;99.90;;;;;;4987239;28;20289;-94
2022/12/19 11:23:59;;;;;;;26.13;23.95;;;11.60;99.90;;;;;;4945777;29;20034;-92
2022/12/19 11:26:32;;;;;;;26.95;24.90;;;11.70;99.90;;;;;;4909250;29;20054;-94
2022/12/19 11:29:04;;;;;;;28.25;26.20;;;11.60;99.90;;;;;;4938185;29;20057;-95
2022/12/19 11:31:30;;;;;;;27.73;25.55;;;11.60;99.90;;;;;;4952707;28;20048;-95
2022/12/19 11:34:11;;;;;;;30.33;27.92;;;11.60;99.90;;;;;;4923482;28;20058;-93
2022/12/19 11:36:43;;;;;;;;;;;11.60;99.90;;;;;;4903919;29;20027;-92
2022/12/19 11:39:23;;;;;;;29.23;27.33;;;11.70;99.90;;;;;;4950033;29;20399;-93
2022/12/19 11:42:14;;;;;;;29.40;27.23;;;11.70;99.90;;;;;;4903954;29;20040;-94
2022/12/19 11:44:54;;;;;;;31.15;29.05;;;11.80;99.90;;;;;;4936964;29;20064;-94
2022/12/19 11:47:53;;;;;;;31.38;29.33;;;11.80;99.90;;;;;;4870032;29;20040;-94
2022/12/19 11:50:48;;;;;;;30.77;28.60;;;11.90;99.90;;;;;;4901262;29;20577;-92
2022/12/19 11:53:49;;;;;;;33.13;30.83;;;11.90;99.90;;;;;;4918323;29;20040;-93
2022/12/19 11:56:17;;;;;;;35.08;32.28;;;11.90;99.90;;;;;;4935068;29;20032;-93
2022/12/19 11:58:52;;;;;;;36.38;33.78;;;12.00;99.90;;;;;;4941298;28;20050;-94
2022/12/19 12:01:39;;;;;;;34.05;31.25;;;12.00;99.90;;;;;;4976569;28;20038;-93
2022/12/19 12:04:43;;;;;;;35.53;33.10;;;12.00;99.90;;;;;;4990672;28;20305;-94
2022/12/19 12:07:09;;;;;;;34.08;31.52;;;12.10;99.90;;;;;;5003295;28;20034;-93
2022/12/19 12:09:45;;;;;;;25.75;23.98;;;12.10;99.90;;;;;;5004057;28;20042;-94
2022/12/19 12:12:21;;;;;;;22.00;20.38;;;12.20;99.90;;;;;;5005292;28;20333;-94
2022/12/19 12:15:30;;;;;;;20.60;19.25;;;12.30;99.90;;;;;;5003636;28;20046;-93
2022/12/19 12:18:26;;;;;;;20.60;18.75;;;12.40;99.90;;;;;;4989294;28;20050;-95
2022/12/19 12:21:01;;;;;;;21.05;19.45;;;12.40;99.90;;;;;;4962378;28;20377;-92
2022/12/19 12:23:42;;;;;;;22.23;20.10;;;12.50;99.90;;;;;;4970423;28;20237;-94
2022/12/19 12:26:32;;;;;;;20.08;18.45;;;12.50;99.90;;;;;;4957779;28;20054;-95
2022/12/19 12:29:15;;;;;;;22.05;20.13;;;12.50;99.90;;;;;;4956056;29;20039;-95
2022/12/19 12:32:00;;;;;;;21.38;19.33;;;12.60;99.90;;;;;;4970785;28;20037;-93
2022/12/19 12:34:35;;;;;;;21.23;19.52;;;12.60;99.90;;;;;;4995904;28;20035;-94
2022/12/19 12:37:23;;;;;;;20.73;18.52;;;12.50;99.90;;;;;;4982495;28;20411;-92
2022/12/19 12:40:20;;;;;;;22.33;20.73;;;12.50;99.90;;;;;;4998476;28;20046;-95
2022/12/19 12:42:57;;;;;;;20.10;18.63;;;12.60;99.90;;;;;;5000111;28;20058;-94
2022/12/19 12:45:39;;;;;;;21.65;19.73;;;12.50;99.90;;;;;;4995056;28;20045;-93
2022/12/19 12:48:26;;;;;;;22.15;20.13;;;12.50;99.90;;;;;;4979130;28;20492;-95
2022/12/19 12:50:53;;;;;;;21.65;19.85;;;12.60;99.90;;;;;;4995674;28;20038;-94
2022/12/19 12:53:22;;;;;;;21.60;19.88;;;12.60;99.90;;;;;;4979357;28;20034;-93
2022/12/19 12:55:48;;;;;;;19.98;18.58;;;12.60;99.90;;;;;;4995679;28;20038;-94